sensor_id;sensor_type;location;lat;lon;timestamp;P1;durP1;ratioP1;P2;durP2;ratioP2
15677;SDS011;7939;50.814;6.368;2023-08-30T00:02:26;7.47;;;4.57;;
15677;SDS011;7939;50.814;6.368;2023-08-30T00:04:57;6.25;;;4.78;;
15677;SDS011;7939;50.814;6.368;2023-08-30T00:07:24;5.03;;;4.63;;
15677;SDS011;7939;50.814;6.368;2023-08-30T00:09:51;7.22;;;5.55;;
15677;SDS011;7939;50.814;6.368;2023-08-30T00:12:17;7.28;;;4.47;;
15677;SDS011;7939;50.814;6.368;2023-08-30T00:14:46;5.57;;;4.50;;
15677;SDS011;7939;50.814;6.368;2023-08-30T00:17:14;5.68;;;4.35;;
15677;SDS011;7939;50.814;6.368;2023-08-30T00:19:41;5.60;;;4.95;;
15677;SDS011;7939;50.814;6.368;2023-08-30T00:22:07;5.82;;;4.63;;
15677;SDS011;7939;50.814;6.368;2023-08-30T00:24:34;9.65;;;4.53;;
15677;SDS011;7939;50.814;6.368;2023-08-30T00:27:00;8.13;;;5.30;;
15677;SDS011;7939;50.814;6.368;2023-08-30T00:29:27;5.63;;;4.50;;
15677;SDS011;7939;50.814;6.368;2023-08-30T00:31:54;6.80;;;4.60;;
15677;SDS011;7939;50.814;6.368;2023-08-30T00:34:22;7.47;;;5.07;;
15677;SDS011;7939;50.814;6.368;2023-08-30T00:36:49;6.80;;;4.82;;
15677;SDS011;7939;50.814;6.368;2023-08-30T00:39:16;6.70;;;4.78;;
15677;SDS011;7939;50.814;6.368;2023-08-30T00:41:42;6.85;;;4.90;;
15677;SDS011;7939;50.814;6.368;2023-08-30T00:44:09;6.25;;;5.10;;
15677;SDS011;7939;50.814;6.368;2023-08-30T00:46:36;4.88;;;4.43;;
15677;SDS011;7939;50.814;6.368;2023-08-30T00:49:02;5.78;;;4.38;;
15677;SDS011;7939;50.814;6.368;2023-08-30T00:51:32;6.15;;;4.63;;
15677;SDS011;7939;50.814;6.368;2023-08-30T00:53:59;7.18;;;4.78;;
15677;SDS011;7939;50.814;6.368;2023-08-30T00:56:26;9.23;;;4.97;;
15677;SDS011;7939;50.814;6.368;2023-08-30T00:58:54;5.43;;;3.92;;
15677;SDS011;7939;50.814;6.368;2023-08-30T01:01:21;6.20;;;4.75;;
15677;SDS011;7939;50.814;6.368;2023-08-30T01:03:48;5.57;;;4.60;;
15677;SDS011;7939;50.814;6.368;2023-08-30T01:06:15;6.07;;;5.15;;
15677;SDS011;7939;50.814;6.368;2023-08-30T01:08:43;6.10;;;4.80;;
15677;SDS011;7939;50.814;6.368;2023-08-30T01:11:11;6.25;;;4.95;;
15677;SDS011;7939;50.814;6.368;2023-08-30T01:13:45;5.32;;;4.20;;
15677;SDS011;7939;50.814;6.368;2023-08-30T01:16:16;6.38;;;4.78;;
15677;SDS011;7939;50.814;6.368;2023-08-30T01:18:45;5.63;;;4.82;;
15677;SDS011;7939;50.814;6.368;2023-08-30T01:21:14;8.30;;;4.95;;
15677;SDS011;7939;50.814;6.368;2023-08-30T01:23:56;5.43;;;4.50;;
15677;SDS011;7939;50.814;6.368;2023-08-30T01:26:26;6.28;;;4.88;;
15677;SDS011;7939;50.814;6.368;2023-08-30T01:29:03;7.28;;;4.53;;
15677;SDS011;7939;50.814;6.368;2023-08-30T01:31:31;5.43;;;4.45;;
15677;SDS011;7939;50.814;6.368;2023-08-30T01:34:00;6.13;;;5.10;;
15677;SDS011;7939;50.814;6.368;2023-08-30T01:36:28;6.25;;;5.30;;
15677;SDS011;7939;50.814;6.368;2023-08-30T01:38:56;8.07;;;5.45;;
15677;SDS011;7939;50.814;6.368;2023-08-30T01:41:24;7.00;;;5.03;;
15677;SDS011;7939;50.814;6.368;2023-08-30T01:43:52;4.82;;;4.43;;
15677;SDS011;7939;50.814;6.368;2023-08-30T01:46:21;6.57;;;4.45;;
15677;SDS011;7939;50.814;6.368;2023-08-30T01:48:48;4.97;;;4.57;;
15677;SDS011;7939;50.814;6.368;2023-08-30T01:51:16;5.18;;;4.35;;
15677;SDS011;7939;50.814;6.368;2023-08-30T01:53:44;5.80;;;4.75;;
15677;SDS011;7939;50.814;6.368;2023-08-30T01:56:12;5.43;;;4.60;;
15677;SDS011;7939;50.814;6.368;2023-08-30T01:58:39;7.07;;;4.85;;
15677;SDS011;7939;50.814;6.368;2023-08-30T02:01:05;5.55;;;5.03;;
15677;SDS011;7939;50.814;6.368;2023-08-30T02:03:35;5.18;;;4.18;;
15677;SDS011;7939;50.814;6.368;2023-08-30T02:06:03;5.13;;;4.63;;
15677;SDS011;7939;50.814;6.368;2023-08-30T02:08:35;7.00;;;4.50;;
15677;SDS011;7939;50.814;6.368;2023-08-30T02:11:06;7.07;;;4.50;;
15677;SDS011;7939;50.814;6.368;2023-08-30T02:13:37;6.30;;;4.55;;
15677;SDS011;7939;50.814;6.368;2023-08-30T02:16:05;6.47;;;4.68;;
15677;SDS011;7939;50.814;6.368;2023-08-30T02:18:36;5.10;;;4.13;;
15677;SDS011;7939;50.814;6.368;2023-08-30T02:21:03;5.88;;;4.20;;
15677;SDS011;7939;50.814;6.368;2023-08-30T02:23:30;7.55;;;4.32;;
15677;SDS011;7939;50.814;6.368;2023-08-30T02:25:56;6.40;;;4.32;;
15677;SDS011;7939;50.814;6.368;2023-08-30T02:28:23;6.50;;;4.22;;
15677;SDS011;7939;50.814;6.368;2023-08-30T02:30:50;6.07;;;4.55;;
15677;SDS011;7939;50.814;6.368;2023-08-30T02:33:19;6.60;;;4.53;;
15677;SDS011;7939;50.814;6.368;2023-08-30T02:35:46;6.85;;;4.57;;
15677;SDS011;7939;50.814;6.368;2023-08-30T02:38:13;6.35;;;4.90;;
15677;SDS011;7939;50.814;6.368;2023-08-30T02:40:40;5.40;;;4.80;;
15677;SDS011;7939;50.814;6.368;2023-08-30T02:43:06;7.65;;;5.47;;
15677;SDS011;7939;50.814;6.368;2023-08-30T02:45:33;7.03;;;4.65;;
15677;SDS011;7939;50.814;6.368;2023-08-30T02:47:59;7.15;;;5.03;;
15677;SDS011;7939;50.814;6.368;2023-08-30T02:50:26;7.60;;;5.07;;
15677;SDS011;7939;50.814;6.368;2023-08-30T02:52:54;6.47;;;5.05;;
15677;SDS011;7939;50.814;6.368;2023-08-30T02:55:21;5.57;;;5.00;;
15677;SDS011;7939;50.814;6.368;2023-08-30T02:57:47;12.35;;;5.88;;
15677;SDS011;7939;50.814;6.368;2023-08-30T03:00:15;7.65;;;5.20;;
15677;SDS011;7939;50.814;6.368;2023-08-30T03:02:42;6.28;;;5.32;;
15677;SDS011;7939;50.814;6.368;2023-08-30T03:05:08;6.05;;;4.63;;
15677;SDS011;7939;50.814;6.368;2023-08-30T03:07:37;6.38;;;4.97;;
15677;SDS011;7939;50.814;6.368;2023-08-30T03:10:05;5.57;;;4.70;;
15677;SDS011;7939;50.814;6.368;2023-08-30T03:12:32;6.22;;;4.88;;
15677;SDS011;7939;50.814;6.368;2023-08-30T03:14:59;6.68;;;4.85;;
15677;SDS011;7939;50.814;6.368;2023-08-30T03:17:25;6.45;;;5.63;;
15677;SDS011;7939;50.814;6.368;2023-08-30T03:19:52;7.32;;;5.28;;
15677;SDS011;7939;50.814;6.368;2023-08-30T03:22:19;7.50;;;5.25;;
15677;SDS011;7939;50.814;6.368;2023-08-30T03:24:46;9.55;;;5.75;;
15677;SDS011;7939;50.814;6.368;2023-08-30T03:27:14;8.82;;;5.53;;
15677;SDS011;7939;50.814;6.368;2023-08-30T03:29:40;7.05;;;5.45;;
15677;SDS011;7939;50.814;6.368;2023-08-30T03:32:07;6.13;;;5.45;;
15677;SDS011;7939;50.814;6.368;2023-08-30T03:34:33;6.07;;;4.97;;
15677;SDS011;7939;50.814;6.368;2023-08-30T03:37:00;6.35;;;5.20;;
15677;SDS011;7939;50.814;6.368;2023-08-30T03:39:27;6.82;;;4.90;;
15677;SDS011;7939;50.814;6.368;2023-08-30T03:41:53;7.13;;;4.70;;
15677;SDS011;7939;50.814;6.368;2023-08-30T03:44:21;6.57;;;4.43;;
15677;SDS011;7939;50.814;6.368;2023-08-30T03:46:48;7.35;;;4.63;;
15677;SDS011;7939;50.814;6.368;2023-08-30T03:49:15;6.10;;;4.80;;
15677;SDS011;7939;50.814;6.368;2023-08-30T03:51:42;6.80;;;4.78;;
15677;SDS011;7939;50.814;6.368;2023-08-30T03:54:08;7.72;;;5.40;;
15677;SDS011;7939;50.814;6.368;2023-08-30T03:56:38;8.27;;;5.55;;
15677;SDS011;7939;50.814;6.368;2023-08-30T03:59:05;7.80;;;5.13;;
15677;SDS011;7939;50.814;6.368;2023-08-30T04:01:33;7.43;;;4.65;;
15677;SDS011;7939;50.814;6.368;2023-08-30T04:03:59;7.50;;;5.55;;
15677;SDS011;7939;50.814;6.368;2023-08-30T04:06:26;6.63;;;4.82;;
15677;SDS011;7939;50.814;6.368;2023-08-30T04:08:53;7.82;;;4.50;;
15677;SDS011;7939;50.814;6.368;2023-08-30T04:11:19;6.60;;;4.75;;
15677;SDS011;7939;50.814;6.368;2023-08-30T04:13:46;6.35;;;5.13;;
15677;SDS011;7939;50.814;6.368;2023-08-30T04:16:12;7.20;;;5.15;;
15677;SDS011;7939;50.814;6.368;2023-08-30T04:18:40;5.93;;;4.53;;
15677;SDS011;7939;50.814;6.368;2023-08-30T04:21:07;6.63;;;5.25;;
15677;SDS011;7939;50.814;6.368;2023-08-30T04:23:34;10.32;;;5.72;;
15677;SDS011;7939;50.814;6.368;2023-08-30T04:26:00;8.68;;;5.40;;
15677;SDS011;7939;50.814;6.368;2023-08-30T04:28:27;6.40;;;4.53;;
15677;SDS011;7939;50.814;6.368;2023-08-30T04:30:54;5.97;;;4.55;;
15677;SDS011;7939;50.814;6.368;2023-08-30T04:33:20;5.45;;;4.63;;
15677;SDS011;7939;50.814;6.368;2023-08-30T04:35:51;6.05;;;4.57;;
15677;SDS011;7939;50.814;6.368;2023-08-30T04:38:17;6.28;;;4.85;;
15677;SDS011;7939;50.814;6.368;2023-08-30T04:40:45;6.88;;;4.68;;
15677;SDS011;7939;50.814;6.368;2023-08-30T04:43:11;6.55;;;5.00;;
15677;SDS011;7939;50.814;6.368;2023-08-30T04:45:38;6.45;;;5.13;;
15677;SDS011;7939;50.814;6.368;2023-08-30T04:48:05;6.35;;;4.55;;
15677;SDS011;7939;50.814;6.368;2023-08-30T04:50:32;7.55;;;4.60;;
15677;SDS011;7939;50.814;6.368;2023-08-30T04:53:00;5.25;;;4.38;;
15677;SDS011;7939;50.814;6.368;2023-08-30T04:55:28;7.80;;;4.78;;
15677;SDS011;7939;50.814;6.368;2023-08-30T04:57:55;5.57;;;4.40;;
15677;SDS011;7939;50.814;6.368;2023-08-30T05:00:21;8.85;;;5.18;;
15677;SDS011;7939;50.814;6.368;2023-08-30T05:02:48;6.57;;;5.00;;
15677;SDS011;7939;50.814;6.368;2023-08-30T05:05:15;8.15;;;4.97;;
15677;SDS011;7939;50.814;6.368;2023-08-30T05:07:42;6.72;;;5.13;;
15677;SDS011;7939;50.814;6.368;2023-08-30T05:10:10;7.35;;;4.90;;
15677;SDS011;7939;50.814;6.368;2023-08-30T05:12:37;7.68;;;4.80;;
15677;SDS011;7939;50.814;6.368;2023-08-30T05:15:04;5.70;;;4.03;;
15677;SDS011;7939;50.814;6.368;2023-08-30T05:17:31;5.65;;;3.88;;
15677;SDS011;7939;50.814;6.368;2023-08-30T05:19:58;4.82;;;3.67;;
15677;SDS011;7939;50.814;6.368;2023-08-30T05:22:25;6.03;;;3.88;;
15677;SDS011;7939;50.814;6.368;2023-08-30T05:24:51;4.13;;;3.20;;
15677;SDS011;7939;50.814;6.368;2023-08-30T05:27:19;6.32;;;3.72;;
15677;SDS011;7939;50.814;6.368;2023-08-30T05:29:46;11.45;;;5.35;;
15677;SDS011;7939;50.814;6.368;2023-08-30T05:32:12;5.97;;;4.65;;
15677;SDS011;7939;50.814;6.368;2023-08-30T05:34:39;6.60;;;5.35;;
15677;SDS011;7939;50.814;6.368;2023-08-30T05:37:05;5.65;;;4.68;;
15677;SDS011;7939;50.814;6.368;2023-08-30T05:39:32;7.63;;;5.32;;
15677;SDS011;7939;50.814;6.368;2023-08-30T05:41:59;7.65;;;5.20;;
15677;SDS011;7939;50.814;6.368;2023-08-30T05:44:27;8.35;;;5.18;;
15677;SDS011;7939;50.814;6.368;2023-08-30T05:46:53;7.68;;;5.15;;
15677;SDS011;7939;50.814;6.368;2023-08-30T05:49:20;7.50;;;4.53;;
15677;SDS011;7939;50.814;6.368;2023-08-30T05:51:46;6.78;;;4.78;;
15677;SDS011;7939;50.814;6.368;2023-08-30T05:54:13;13.65;;;6.55;;
15677;SDS011;7939;50.814;6.368;2023-08-30T05:56:40;5.55;;;4.57;;
15677;SDS011;7939;50.814;6.368;2023-08-30T05:59:07;5.88;;;4.30;;
15677;SDS011;7939;50.814;6.368;2023-08-30T06:01:35;5.03;;;3.78;;
15677;SDS011;7939;50.814;6.368;2023-08-30T06:04:02;7.13;;;4.40;;
15677;SDS011;7939;50.814;6.368;2023-08-30T06:06:29;6.75;;;5.55;;
15677;SDS011;7939;50.814;6.368;2023-08-30T06:08:57;5.90;;;3.80;;
15677;SDS011;7939;50.814;6.368;2023-08-30T06:11:24;4.95;;;3.30;;
15677;SDS011;7939;50.814;6.368;2023-08-30T06:13:50;4.90;;;3.03;;
15677;SDS011;7939;50.814;6.368;2023-08-30T06:16:17;4.78;;;3.08;;
15677;SDS011;7939;50.814;6.368;2023-08-30T06:18:45;3.75;;;3.13;;
15677;SDS011;7939;50.814;6.368;2023-08-30T06:21:12;4.15;;;2.90;;
15677;SDS011;7939;50.814;6.368;2023-08-30T06:23:38;4.78;;;2.90;;
15677;SDS011;7939;50.814;6.368;2023-08-30T06:26:05;5.97;;;2.97;;
15677;SDS011;7939;50.814;6.368;2023-08-30T06:28:31;4.68;;;3.03;;
15677;SDS011;7939;50.814;6.368;2023-08-30T06:30:58;3.67;;;2.80;;
15677;SDS011;7939;50.814;6.368;2023-08-30T06:33:25;5.70;;;2.58;;
15677;SDS011;7939;50.814;6.368;2023-08-30T06:35:52;3.58;;;2.60;;
15677;SDS011;7939;50.814;6.368;2023-08-30T06:38:21;3.55;;;2.40;;
15677;SDS011;7939;50.814;6.368;2023-08-30T06:40:48;12.13;;;3.00;;
15677;SDS011;7939;50.814;6.368;2023-08-30T06:43:15;3.00;;;2.45;;
15677;SDS011;7939;50.814;6.368;2023-08-30T06:45:41;3.08;;;2.50;;
15677;SDS011;7939;50.814;6.368;2023-08-30T06:48:08;5.55;;;2.60;;
15677;SDS011;7939;50.814;6.368;2023-08-30T06:50:36;4.32;;;3.35;;
15677;SDS011;7939;50.814;6.368;2023-08-30T06:53:04;3.75;;;2.70;;
15677;SDS011;7939;50.814;6.368;2023-08-30T06:55:30;4.38;;;2.63;;
15677;SDS011;7939;50.814;6.368;2023-08-30T06:57:58;5.05;;;2.63;;
15677;SDS011;7939;50.814;6.368;2023-08-30T07:00:25;4.28;;;2.75;;
15677;SDS011;7939;50.814;6.368;2023-08-30T07:02:52;4.93;;;2.83;;
15677;SDS011;7939;50.814;6.368;2023-08-30T07:05:18;2.83;;;2.38;;
15677;SDS011;7939;50.814;6.368;2023-08-30T07:07:45;5.30;;;3.00;;
15677;SDS011;7939;50.814;6.368;2023-08-30T07:10:13;2.85;;;2.53;;
15677;SDS011;7939;50.814;6.368;2023-08-30T07:12:40;3.10;;;2.40;;
15677;SDS011;7939;50.814;6.368;2023-08-30T07:15:07;5.07;;;2.47;;
15677;SDS011;7939;50.814;6.368;2023-08-30T07:17:34;3.20;;;2.47;;
15677;SDS011;7939;50.814;6.368;2023-08-30T07:20:00;5.18;;;2.33;;
15677;SDS011;7939;50.814;6.368;2023-08-30T07:22:30;2.90;;;2.60;;
15677;SDS011;7939;50.814;6.368;2023-08-30T07:24:56;6.30;;;2.78;;
15677;SDS011;7939;50.814;6.368;2023-08-30T07:27:24;4.03;;;2.72;;
15677;SDS011;7939;50.814;6.368;2023-08-30T07:29:53;5.15;;;2.67;;
15677;SDS011;7939;50.814;6.368;2023-08-30T07:32:20;3.55;;;2.38;;
15677;SDS011;7939;50.814;6.368;2023-08-30T07:34:46;5.30;;;3.00;;
15677;SDS011;7939;50.814;6.368;2023-08-30T07:37:17;4.22;;;2.53;;
15677;SDS011;7939;50.814;6.368;2023-08-30T07:39:45;3.55;;;2.50;;
15677;SDS011;7939;50.814;6.368;2023-08-30T07:42:11;4.63;;;2.90;;
15677;SDS011;7939;50.814;6.368;2023-08-30T07:44:40;6.32;;;2.63;;
15677;SDS011;7939;50.814;6.368;2023-08-30T07:47:07;5.20;;;2.58;;
15677;SDS011;7939;50.814;6.368;2023-08-30T07:49:34;5.45;;;2.90;;
15677;SDS011;7939;50.814;6.368;2023-08-30T07:52:00;3.97;;;2.70;;
15677;SDS011;7939;50.814;6.368;2023-08-30T07:54:27;5.10;;;2.70;;
15677;SDS011;7939;50.814;6.368;2023-08-30T07:56:54;3.75;;;2.40;;
15677;SDS011;7939;50.814;6.368;2023-08-30T07:59:20;4.40;;;2.72;;
15677;SDS011;7939;50.814;6.368;2023-08-30T08:01:48;3.30;;;2.40;;
15677;SDS011;7939;50.814;6.368;2023-08-30T08:04:17;2.97;;;2.53;;
15677;SDS011;7939;50.814;6.368;2023-08-30T08:06:44;2.53;;;2.05;;
15677;SDS011;7939;50.814;6.368;2023-08-30T08:09:10;4.32;;;2.58;;
15677;SDS011;7939;50.814;6.368;2023-08-30T08:11:37;3.00;;;2.60;;
15677;SDS011;7939;50.814;6.368;2023-08-30T08:14:08;5.82;;;2.70;;
15677;SDS011;7939;50.814;6.368;2023-08-30T08:16:35;6.50;;;2.92;;
15677;SDS011;7939;50.814;6.368;2023-08-30T08:19:02;8.00;;;2.90;;
15677;SDS011;7939;50.814;6.368;2023-08-30T08:21:29;4.13;;;2.83;;
15677;SDS011;7939;50.814;6.368;2023-08-30T08:23:56;9.80;;;3.65;;
15677;SDS011;7939;50.814;6.368;2023-08-30T08:26:22;7.35;;;3.88;;
15677;SDS011;7939;50.814;6.368;2023-08-30T08:28:49;4.25;;;2.83;;
15677;SDS011;7939;50.814;6.368;2023-08-30T08:31:15;3.28;;;2.97;;
15677;SDS011;7939;50.814;6.368;2023-08-30T08:33:42;9.10;;;3.95;;
15677;SDS011;7939;50.814;6.368;2023-08-30T08:36:10;8.55;;;3.83;;
15677;SDS011;7939;50.814;6.368;2023-08-30T08:38:37;6.60;;;3.70;;
15677;SDS011;7939;50.814;6.368;2023-08-30T08:41:05;6.68;;;3.28;;
15677;SDS011;7939;50.814;6.368;2023-08-30T08:43:32;5.78;;;3.33;;
15677;SDS011;7939;50.814;6.368;2023-08-30T08:46:00;5.90;;;3.42;;
15677;SDS011;7939;50.814;6.368;2023-08-30T08:48:28;9.55;;;3.55;;
15677;SDS011;7939;50.814;6.368;2023-08-30T08:50:55;4.30;;;3.10;;
15677;SDS011;7939;50.814;6.368;2023-08-30T08:53:23;4.72;;;3.53;;
15677;SDS011;7939;50.814;6.368;2023-08-30T08:55:50;5.50;;;3.65;;
15677;SDS011;7939;50.814;6.368;2023-08-30T08:58:18;4.13;;;3.17;;
15677;SDS011;7939;50.814;6.368;2023-08-30T09:00:45;5.28;;;3.08;;
15677;SDS011;7939;50.814;6.368;2023-08-30T09:03:12;5.35;;;3.55;;
15677;SDS011;7939;50.814;6.368;2023-08-30T09:05:39;5.22;;;3.22;;
15677;SDS011;7939;50.814;6.368;2023-08-30T09:08:06;3.45;;;3.00;;
15677;SDS011;7939;50.814;6.368;2023-08-30T09:10:37;5.07;;;3.35;;
15677;SDS011;7939;50.814;6.368;2023-08-30T09:13:05;3.90;;;2.97;;
15677;SDS011;7939;50.814;6.368;2023-08-30T09:15:32;5.32;;;2.97;;
15677;SDS011;7939;50.814;6.368;2023-08-30T09:17:58;4.32;;;2.97;;
15677;SDS011;7939;50.814;6.368;2023-08-30T09:20:25;3.85;;;2.70;;
15677;SDS011;7939;50.814;6.368;2023-08-30T09:22:52;4.75;;;2.97;;
15677;SDS011;7939;50.814;6.368;2023-08-30T09:25:22;5.15;;;2.60;;
15677;SDS011;7939;50.814;6.368;2023-08-30T09:27:51;12.52;;;4.00;;
15677;SDS011;7939;50.814;6.368;2023-08-30T09:30:22;3.25;;;2.38;;
15677;SDS011;7939;50.814;6.368;2023-08-30T09:32:49;3.95;;;2.00;;
15677;SDS011;7939;50.814;6.368;2023-08-30T09:35:16;4.47;;;2.60;;
15677;SDS011;7939;50.814;6.368;2023-08-30T09:37:44;3.03;;;2.38;;
15677;SDS011;7939;50.814;6.368;2023-08-30T09:40:10;4.63;;;2.40;;
15677;SDS011;7939;50.814;6.368;2023-08-30T09:42:40;2.72;;;2.28;;
15677;SDS011;7939;50.814;6.368;2023-08-30T09:45:09;3.55;;;2.10;;
15677;SDS011;7939;50.814;6.368;2023-08-30T09:47:46;4.53;;;2.30;;
15677;SDS011;7939;50.814;6.368;2023-08-30T09:50:13;2.55;;;2.03;;
15677;SDS011;7939;50.814;6.368;2023-08-30T09:52:43;2.90;;;2.00;;
15677;SDS011;7939;50.814;6.368;2023-08-30T09:55:10;3.60;;;1.90;;
15677;SDS011;7939;50.814;6.368;2023-08-30T09:57:37;2.47;;;1.92;;
15677;SDS011;7939;50.814;6.368;2023-08-30T10:00:04;2.67;;;1.80;;
15677;SDS011;7939;50.814;6.368;2023-08-30T10:02:34;3.30;;;2.45;;
15677;SDS011;7939;50.814;6.368;2023-08-30T10:05:00;2.30;;;1.80;;
15677;SDS011;7939;50.814;6.368;2023-08-30T10:07:30;2.97;;;1.92;;
15677;SDS011;7939;50.814;6.368;2023-08-30T10:09:57;3.78;;;1.98;;
15677;SDS011;7939;50.814;6.368;2023-08-30T10:12:25;3.55;;;1.75;;
15677;SDS011;7939;50.814;6.368;2023-08-30T10:14:53;2.72;;;1.70;;
15677;SDS011;7939;50.814;6.368;2023-08-30T10:17:20;3.40;;;2.30;;
15677;SDS011;7939;50.814;6.368;2023-08-30T10:19:50;5.05;;;2.33;;
15677;SDS011;7939;50.814;6.368;2023-08-30T10:22:19;2.95;;;2.15;;
15677;SDS011;7939;50.814;6.368;2023-08-30T10:24:48;3.63;;;2.20;;
15677;SDS011;7939;50.814;6.368;2023-08-30T10:27:19;3.10;;;2.35;;
15677;SDS011;7939;50.814;6.368;2023-08-30T10:29:50;3.58;;;2.13;;
15677;SDS011;7939;50.814;6.368;2023-08-30T10:32:19;4.28;;;2.70;;
15677;SDS011;7939;50.814;6.368;2023-08-30T10:34:46;4.47;;;2.50;;
15677;SDS011;7939;50.814;6.368;2023-08-30T10:37:15;3.63;;;2.80;;
15677;SDS011;7939;50.814;6.368;2023-08-30T10:39:42;2.85;;;2.40;;
15677;SDS011;7939;50.814;6.368;2023-08-30T10:42:09;4.00;;;2.75;;
15677;SDS011;7939;50.814;6.368;2023-08-30T10:44:49;3.42;;;2.38;;
15677;SDS011;7939;50.814;6.368;2023-08-30T10:47:19;4.13;;;3.08;;
15677;SDS011;7939;50.814;6.368;2023-08-30T10:49:46;5.68;;;2.55;;
15677;SDS011;7939;50.814;6.368;2023-08-30T10:52:13;4.43;;;2.63;;
15677;SDS011;7939;50.814;6.368;2023-08-30T10:54:41;3.97;;;2.25;;
15677;SDS011;7939;50.814;6.368;2023-08-30T10:57:12;4.50;;;2.53;;
15677;SDS011;7939;50.814;6.368;2023-08-30T10:59:40;2.50;;;2.25;;
15677;SDS011;7939;50.814;6.368;2023-08-30T11:02:13;2.33;;;2.13;;
15677;SDS011;7939;50.814;6.368;2023-08-30T11:04:41;2.85;;;2.05;;
15677;SDS011;7939;50.814;6.368;2023-08-30T11:07:08;4.68;;;2.40;;
15677;SDS011;7939;50.814;6.368;2023-08-30T11:09:37;2.53;;;1.98;;
15677;SDS011;7939;50.814;6.368;2023-08-30T11:12:07;3.35;;;2.28;;
15677;SDS011;7939;50.814;6.368;2023-08-30T11:14:34;3.20;;;1.90;;
15677;SDS011;7939;50.814;6.368;2023-08-30T11:17:00;2.05;;;1.85;;
15677;SDS011;7939;50.814;6.368;2023-08-30T11:19:29;2.40;;;1.88;;
15677;SDS011;7939;50.814;6.368;2023-08-30T11:21:56;4.05;;;2.10;;
15677;SDS011;7939;50.814;6.368;2023-08-30T11:24:22;2.03;;;1.80;;
15677;SDS011;7939;50.814;6.368;2023-08-30T11:26:52;2.95;;;1.95;;
15677;SDS011;7939;50.814;6.368;2023-08-30T11:29:20;2.90;;;2.03;;
15677;SDS011;7939;50.814;6.368;2023-08-30T11:31:47;2.40;;;1.95;;
15677;SDS011;7939;50.814;6.368;2023-08-30T11:34:15;2.00;;;1.80;;
15677;SDS011;7939;50.814;6.368;2023-08-30T11:36:47;2.25;;;1.70;;
15677;SDS011;7939;50.814;6.368;2023-08-30T11:39:14;2.20;;;1.83;;
15677;SDS011;7939;50.814;6.368;2023-08-30T11:41:42;2.33;;;2.13;;
15677;SDS011;7939;50.814;6.368;2023-08-30T11:44:09;2.47;;;2.08;;
15677;SDS011;7939;50.814;6.368;2023-08-30T11:46:37;2.17;;;1.98;;
15677;SDS011;7939;50.814;6.368;2023-08-30T11:49:04;3.13;;;2.30;;
15677;SDS011;7939;50.814;6.368;2023-08-30T11:51:31;3.63;;;2.50;;
15677;SDS011;7939;50.814;6.368;2023-08-30T11:53:58;2.95;;;2.40;;
15677;SDS011;7939;50.814;6.368;2023-08-30T11:56:27;3.17;;;2.40;;
15677;SDS011;7939;50.814;6.368;2023-08-30T11:58:54;2.90;;;2.70;;
15677;SDS011;7939;50.814;6.368;2023-08-30T12:01:20;2.70;;;2.50;;
15677;SDS011;7939;50.814;6.368;2023-08-30T12:03:49;3.28;;;2.85;;
15677;SDS011;7939;50.814;6.368;2023-08-30T12:06:15;3.85;;;2.67;;
15677;SDS011;7939;50.814;6.368;2023-08-30T12:08:42;3.78;;;3.17;;
15677;SDS011;7939;50.814;6.368;2023-08-30T12:11:17;2.60;;;2.40;;
15677;SDS011;7939;50.814;6.368;2023-08-30T12:13:44;3.20;;;2.30;;
15677;SDS011;7939;50.814;6.368;2023-08-30T12:16:15;3.90;;;2.53;;
15677;SDS011;7939;50.814;6.368;2023-08-30T12:18:42;2.45;;;2.25;;
15677;SDS011;7939;50.814;6.368;2023-08-30T12:21:10;3.50;;;2.45;;
15677;SDS011;7939;50.814;6.368;2023-08-30T12:23:39;2.88;;;2.58;;
15677;SDS011;7939;50.814;6.368;2023-08-30T12:26:06;4.47;;;2.65;;
15677;SDS011;7939;50.814;6.368;2023-08-30T12:28:34;3.40;;;2.50;;
15677;SDS011;7939;50.814;6.368;2023-08-30T12:31:02;2.30;;;2.10;;
15677;SDS011;7939;50.814;6.368;2023-08-30T12:33:29;3.58;;;2.30;;
15677;SDS011;7939;50.814;6.368;2023-08-30T12:35:57;2.13;;;1.48;;
15677;SDS011;7939;50.814;6.368;2023-08-30T12:38:25;3.28;;;2.15;;
15677;SDS011;7939;50.814;6.368;2023-08-30T12:40:53;2.35;;;1.98;;
15677;SDS011;7939;50.814;6.368;2023-08-30T12:43:21;3.75;;;2.28;;
15677;SDS011;7939;50.814;6.368;2023-08-30T12:45:48;2.95;;;1.80;;
15677;SDS011;7939;50.814;6.368;2023-08-30T12:48:16;2.00;;;1.80;;
15677;SDS011;7939;50.814;6.368;2023-08-30T12:50:44;2.42;;;1.40;;
15677;SDS011;7939;50.814;6.368;2023-08-30T12:53:12;3.38;;;1.27;;
15677;SDS011;7939;50.814;6.368;2023-08-30T12:55:41;3.50;;;1.40;;
15677;SDS011;7939;50.814;6.368;2023-08-30T12:58:08;4.00;;;1.50;;
15677;SDS011;7939;50.814;6.368;2023-08-30T13:00:35;2.20;;;1.42;;
15677;SDS011;7939;50.814;6.368;2023-08-30T13:03:02;2.00;;;1.27;;
15677;SDS011;7939;50.814;6.368;2023-08-30T13:05:28;3.15;;;1.05;;
15677;SDS011;7939;50.814;6.368;2023-08-30T13:07:55;1.20;;;1.10;;
15677;SDS011;7939;50.814;6.368;2023-08-30T13:10:22;1.60;;;1.20;;
15677;SDS011;7939;50.814;6.368;2023-08-30T13:12:50;1.75;;;1.40;;
15677;SDS011;7939;50.814;6.368;2023-08-30T13:15:17;2.00;;;1.52;;
15677;SDS011;7939;50.814;6.368;2023-08-30T13:17:44;1.70;;;1.60;;
15677;SDS011;7939;50.814;6.368;2023-08-30T13:20:10;3.17;;;1.80;;
15677;SDS011;7939;50.814;6.368;2023-08-30T13:22:37;2.38;;;1.65;;
15677;SDS011;7939;50.814;6.368;2023-08-30T13:25:04;2.17;;;1.70;;
15677;SDS011;7939;50.814;6.368;2023-08-30T13:27:32;2.40;;;2.10;;
15677;SDS011;7939;50.814;6.368;2023-08-30T13:30:00;2.83;;;2.40;;
15677;SDS011;7939;50.814;6.368;2023-08-30T13:32:27;2.88;;;2.10;;
15677;SDS011;7939;50.814;6.368;2023-08-30T13:34:54;2.53;;;1.77;;
15677;SDS011;7939;50.814;6.368;2023-08-30T13:37:20;4.28;;;2.40;;
15677;SDS011;7939;50.814;6.368;2023-08-30T13:39:48;3.03;;;2.28;;
15677;SDS011;7939;50.814;6.368;2023-08-30T13:42:15;2.60;;;1.83;;
15677;SDS011;7939;50.814;6.368;2023-08-30T13:44:41;3.00;;;2.08;;
15677;SDS011;7939;50.814;6.368;2023-08-30T13:47:10;2.25;;;1.80;;
15677;SDS011;7939;50.814;6.368;2023-08-30T13:49:37;3.72;;;1.83;;
15677;SDS011;7939;50.814;6.368;2023-08-30T13:52:03;2.30;;;1.90;;
15677;SDS011;7939;50.814;6.368;2023-08-30T13:54:30;3.97;;;2.40;;
15677;SDS011;7939;50.814;6.368;2023-08-30T13:56:57;2.58;;;2.10;;
15677;SDS011;7939;50.814;6.368;2023-08-30T13:59:24;2.30;;;2.10;;
15677;SDS011;7939;50.814;6.368;2023-08-30T14:01:50;2.50;;;2.28;;
15677;SDS011;7939;50.814;6.368;2023-08-30T14:04:18;3.40;;;2.70;;
15677;SDS011;7939;50.814;6.368;2023-08-30T14:06:45;3.40;;;2.50;;
15677;SDS011;7939;50.814;6.368;2023-08-30T14:09:11;3.17;;;2.75;;
15677;SDS011;7939;50.814;6.368;2023-08-30T14:11:38;3.47;;;2.40;;
15677;SDS011;7939;50.814;6.368;2023-08-30T14:14:06;3.03;;;2.55;;
15677;SDS011;7939;50.814;6.368;2023-08-30T14:16:33;3.15;;;2.60;;
15677;SDS011;7939;50.814;6.368;2023-08-30T14:19:01;4.90;;;2.85;;
15677;SDS011;7939;50.814;6.368;2023-08-30T14:21:32;3.72;;;2.78;;
15677;SDS011;7939;50.814;6.368;2023-08-30T14:23:59;3.72;;;2.90;;
15677;SDS011;7939;50.814;6.368;2023-08-30T14:26:26;3.65;;;2.85;;
15677;SDS011;7939;50.814;6.368;2023-08-30T14:28:54;3.28;;;2.97;;
15677;SDS011;7939;50.814;6.368;2023-08-30T14:31:21;4.55;;;2.97;;
15677;SDS011;7939;50.814;6.368;2023-08-30T14:33:47;3.55;;;2.35;;
15677;SDS011;7939;50.814;6.368;2023-08-30T14:36:14;4.10;;;2.90;;
15677;SDS011;7939;50.814;6.368;2023-08-30T14:38:42;3.47;;;3.03;;
15677;SDS011;7939;50.814;6.368;2023-08-30T14:41:08;3.60;;;2.70;;
15677;SDS011;7939;50.814;6.368;2023-08-30T14:43:35;4.90;;;3.13;;
15677;SDS011;7939;50.814;6.368;2023-08-30T14:46:02;3.60;;;2.72;;
15677;SDS011;7939;50.814;6.368;2023-08-30T14:48:30;3.22;;;2.63;;
15677;SDS011;7939;50.814;6.368;2023-08-30T14:50:58;3.30;;;2.60;;
15677;SDS011;7939;50.814;6.368;2023-08-30T14:53:25;5.18;;;3.08;;
15677;SDS011;7939;50.814;6.368;2023-08-30T14:55:53;3.42;;;2.85;;
15677;SDS011;7939;50.814;6.368;2023-08-30T14:58:21;3.47;;;3.15;;
15677;SDS011;7939;50.814;6.368;2023-08-30T15:00:48;3.30;;;2.55;;
15677;SDS011;7939;50.814;6.368;2023-08-30T15:03:15;3.88;;;2.90;;